sensor_id;sensor_type;location;lat;lon;timestamp;temperature;humidity
16663;DHT22;8445;51.270;9.434;2022-09-02T00:01:53;12.30;52.40
16663;DHT22;8445;51.270;9.434;2022-09-02T00:04:22;12.30;53.80
16663;DHT22;8445;51.270;9.434;2022-09-02T00:06:51;12.30;53.50
16663;DHT22;8445;51.270;9.434;2022-09-02T00:09:21;12.40;53.10
16663;DHT22;8445;51.270;9.434;2022-09-02T00:11:50;12.40;53.10
16663;DHT22;8445;51.270;9.434;2022-09-02T00:14:21;12.40;53.10
16663;DHT22;8445;51.270;9.434;2022-09-02T00:16:50;12.50;53.70
16663;DHT22;8445;51.270;9.434;2022-09-02T00:19:22;12.60;53.40
16663;DHT22;8445;51.270;9.434;2022-09-02T00:21:51;12.70;53.80
16663;DHT22;8445;51.270;9.434;2022-09-02T00:24:18;12.70;53.50
16663;DHT22;8445;51.270;9.434;2022-09-02T00:26:45;12.70;54.50
16663;DHT22;8445;51.270;9.434;2022-09-02T00:29:12;12.70;53.30
16663;DHT22;8445;51.270;9.434;2022-09-02T00:31:41;12.80;54.80
16663;DHT22;8445;51.270;9.434;2022-09-02T00:34:09;12.80;56.60
16663;DHT22;8445;51.270;9.434;2022-09-02T00:36:36;13.00;54.70
16663;DHT22;8445;51.270;9.434;2022-09-02T00:39:03;13.00;53.70
16663;DHT22;8445;51.270;9.434;2022-09-02T00:41:32;13.00;53.50
16663;DHT22;8445;51.270;9.434;2022-09-02T00:44:02;13.00;54.20
16663;DHT22;8445;51.270;9.434;2022-09-02T00:46:32;12.90;53.60
16663;DHT22;8445;51.270;9.434;2022-09-02T00:54:37;13.00;54.10
16663;DHT22;8445;51.270;9.434;2022-09-02T00:57:12;12.90;54.00
16663;DHT22;8445;51.270;9.434;2022-09-02T01:02:52;12.90;55.40
16663;DHT22;8445;51.270;9.434;2022-09-02T01:05:23;12.90;53.80
16663;DHT22;8445;51.270;9.434;2022-09-02T01:07:52;12.90;56.30
16663;DHT22;8445;51.270;9.434;2022-09-02T01:10:25;13.00;55.80
16663;DHT22;8445;51.270;9.434;2022-09-02T01:12:55;13.00;54.20
16663;DHT22;8445;51.270;9.434;2022-09-02T01:15:23;13.00;54.40
16663;DHT22;8445;51.270;9.434;2022-09-02T01:17:50;12.90;54.00
16663;DHT22;8445;51.270;9.434;2022-09-02T01:20:20;12.90;54.30
16663;DHT22;8445;51.270;9.434;2022-09-02T01:22:49;12.80;54.30
16663;DHT22;8445;51.270;9.434;2022-09-02T01:25:21;12.80;55.10
16663;DHT22;8445;51.270;9.434;2022-09-02T01:27:49;12.80;55.60
16663;DHT22;8445;51.270;9.434;2022-09-02T01:30:19;12.80;55.60
16663;DHT22;8445;51.270;9.434;2022-09-02T01:32:49;12.80;55.10
16663;DHT22;8445;51.270;9.434;2022-09-02T01:35:15;12.70;55.30
16663;DHT22;8445;51.270;9.434;2022-09-02T01:37:43;12.70;55.00
16663;DHT22;8445;51.270;9.434;2022-09-02T01:40:15;12.60;56.70
16663;DHT22;8445;51.270;9.434;2022-09-02T01:42:43;12.60;55.30
16663;DHT22;8445;51.270;9.434;2022-09-02T01:45:10;12.50;54.90
16663;DHT22;8445;51.270;9.434;2022-09-02T01:47:37;12.40;56.10
16663;DHT22;8445;51.270;9.434;2022-09-02T01:50:05;12.40;55.90
16663;DHT22;8445;51.270;9.434;2022-09-02T01:52:33;12.40;55.20
16663;DHT22;8445;51.270;9.434;2022-09-02T01:55:00;12.40;58.20
16663;DHT22;8445;51.270;9.434;2022-09-02T01:57:26;12.30;57.50
16663;DHT22;8445;51.270;9.434;2022-09-02T01:59:53;12.30;57.90
16663;DHT22;8445;51.270;9.434;2022-09-02T02:02:20;12.30;57.80
16663;DHT22;8445;51.270;9.434;2022-09-02T02:04:47;12.30;56.10
16663;DHT22;8445;51.270;9.434;2022-09-02T02:07:17;12.20;56.50
16663;DHT22;8445;51.270;9.434;2022-09-02T02:09:44;12.10;56.30
16663;DHT22;8445;51.270;9.434;2022-09-02T02:12:14;12.10;57.30
16663;DHT22;8445;51.270;9.434;2022-09-02T02:14:40;12.00;57.30
16663;DHT22;8445;51.270;9.434;2022-09-02T02:17:06;12.00;58.70
16663;DHT22;8445;51.270;9.434;2022-09-02T02:19:33;12.10;57.30
16663;DHT22;8445;51.270;9.434;2022-09-02T02:22:00;12.10;58.60
16663;DHT22;8445;51.270;9.434;2022-09-02T02:24:28;12.10;57.70
16663;DHT22;8445;51.270;9.434;2022-09-02T02:26:54;12.10;56.30
16663;DHT22;8445;51.270;9.434;2022-09-02T02:29:20;12.00;56.30
16663;DHT22;8445;51.270;9.434;2022-09-02T02:31:47;12.00;56.30
16663;DHT22;8445;51.270;9.434;2022-09-02T02:34:14;11.90;56.20
16663;DHT22;8445;51.270;9.434;2022-09-02T02:36:42;11.80;58.40
16663;DHT22;8445;51.270;9.434;2022-09-02T02:39:10;11.80;59.40
16663;DHT22;8445;51.270;9.434;2022-09-02T02:41:37;11.80;57.70
16663;DHT22;8445;51.270;9.434;2022-09-02T02:44:05;11.80;57.50
16663;DHT22;8445;51.270;9.434;2022-09-02T02:46:34;11.90;58.20
16663;DHT22;8445;51.270;9.434;2022-09-02T02:49:02;12.00;59.70
16663;DHT22;8445;51.270;9.434;2022-09-02T02:51:31;12.00;60.20
16663;DHT22;8445;51.270;9.434;2022-09-02T02:53:58;12.20;59.70
16663;DHT22;8445;51.270;9.434;2022-09-02T02:56:27;12.20;58.90
16663;DHT22;8445;51.270;9.434;2022-09-02T02:58:56;12.20;59.40
16663;DHT22;8445;51.270;9.434;2022-09-02T03:01:24;12.30;60.20
16663;DHT22;8445;51.270;9.434;2022-09-02T03:03:50;12.40;60.40
16663;DHT22;8445;51.270;9.434;2022-09-02T03:06:20;12.40;58.70
16663;DHT22;8445;51.270;9.434;2022-09-02T03:08:48;12.50;59.00
16663;DHT22;8445;51.270;9.434;2022-09-02T03:11:15;12.50;59.20
16663;DHT22;8445;51.270;9.434;2022-09-02T03:13:42;12.50;58.20
16663;DHT22;8445;51.270;9.434;2022-09-02T03:16:08;12.50;58.10
16663;DHT22;8445;51.270;9.434;2022-09-02T03:18:34;12.50;57.90
16663;DHT22;8445;51.270;9.434;2022-09-02T03:21:01;12.50;58.10
16663;DHT22;8445;51.270;9.434;2022-09-02T03:23:32;12.50;58.10
16663;DHT22;8445;51.270;9.434;2022-09-02T03:25:57;12.40;59.00
16663;DHT22;8445;51.270;9.434;2022-09-02T03:28:31;12.40;58.10
16663;DHT22;8445;51.270;9.434;2022-09-02T03:30:58;12.50;58.50
16663;DHT22;8445;51.270;9.434;2022-09-02T03:33:25;12.50;58.90
16663;DHT22;8445;51.270;9.434;2022-09-02T03:35:51;12.50;59.10
16663;DHT22;8445;51.270;9.434;2022-09-02T03:38:17;12.50;59.80
16663;DHT22;8445;51.270;9.434;2022-09-02T03:40:44;12.50;59.10
16663;DHT22;8445;51.270;9.434;2022-09-02T03:43:10;12.60;58.80
16663;DHT22;8445;51.270;9.434;2022-09-02T03:45:37;12.60;58.70
16663;DHT22;8445;51.270;9.434;2022-09-02T03:48:07;12.60;58.70
16663;DHT22;8445;51.270;9.434;2022-09-02T03:50:38;12.60;58.70
16663;DHT22;8445;51.270;9.434;2022-09-02T03:53:09;12.60;58.70
16663;DHT22;8445;51.270;9.434;2022-09-02T03:55:37;12.50;58.80
16663;DHT22;8445;51.270;9.434;2022-09-02T03:58:03;12.50;58.80
16663;DHT22;8445;51.270;9.434;2022-09-02T04:00:30;12.50;58.80
16663;DHT22;8445;51.270;9.434;2022-09-02T04:03:01;12.50;58.90
16663;DHT22;8445;51.270;9.434;2022-09-02T04:05:28;12.60;59.00
16663;DHT22;8445;51.270;9.434;2022-09-02T04:07:57;12.50;59.10
16663;DHT22;8445;51.270;9.434;2022-09-02T04:10:24;12.50;59.40
16663;DHT22;8445;51.270;9.434;2022-09-02T04:12:51;12.50;59.70
16663;DHT22;8445;51.270;9.434;2022-09-02T04:15:18;12.50;59.70
16663;DHT22;8445;51.270;9.434;2022-09-02T04:21:48;12.60;59.70
16663;DHT22;8445;51.270;9.434;2022-09-02T04:24:14;12.60;59.50
16663;DHT22;8445;51.270;9.434;2022-09-02T04:26:45;12.70;59.70
16663;DHT22;8445;51.270;9.434;2022-09-02T04:29:13;12.70;59.80
16663;DHT22;8445;51.270;9.434;2022-09-02T04:31:40;12.70;59.90
16663;DHT22;8445;51.270;9.434;2022-09-02T04:34:06;12.70;59.80
16663;DHT22;8445;51.270;9.434;2022-09-02T04:36:33;12.80;60.00
16663;DHT22;8445;51.270;9.434;2022-09-02T04:39:03;12.80;60.00
16663;DHT22;8445;51.270;9.434;2022-09-02T04:41:32;12.80;60.50
16663;DHT22;8445;51.270;9.434;2022-09-02T04:44:03;12.90;60.20
16663;DHT22;8445;51.270;9.434;2022-09-02T04:46:35;12.90;60.00
16663;DHT22;8445;51.270;9.434;2022-09-02T04:49:04;13.00;60.20
16663;DHT22;8445;51.270;9.434;2022-09-02T04:51:31;13.00;60.10
16663;DHT22;8445;51.270;9.434;2022-09-02T04:54:00;13.00;60.20
16663;DHT22;8445;51.270;9.434;2022-09-02T04:56:28;13.10;60.30
16663;DHT22;8445;51.270;9.434;2022-09-02T04:58:58;13.10;60.40
16663;DHT22;8445;51.270;9.434;2022-09-02T05:01:27;13.10;61.60
16663;DHT22;8445;51.270;9.434;2022-09-02T05:03:59;13.10;60.40
16663;DHT22;8445;51.270;9.434;2022-09-02T05:06:33;13.20;60.30
16663;DHT22;8445;51.270;9.434;2022-09-02T05:09:02;13.20;60.70
16663;DHT22;8445;51.270;9.434;2022-09-02T05:11:31;13.20;62.10
16663;DHT22;8445;51.270;9.434;2022-09-02T05:14:01;13.30;62.30
16663;DHT22;8445;51.270;9.434;2022-09-02T05:16:34;13.40;61.10
16663;DHT22;8445;51.270;9.434;2022-09-02T05:19:07;13.40;60.80
16663;DHT22;8445;51.270;9.434;2022-09-02T05:21:43;13.50;60.70
16663;DHT22;8445;51.270;9.434;2022-09-02T05:24:16;13.50;60.70
16663;DHT22;8445;51.270;9.434;2022-09-02T05:26:43;13.60;60.60
16663;DHT22;8445;51.270;9.434;2022-09-02T05:29:11;13.70;60.60
16663;DHT22;8445;51.270;9.434;2022-09-02T05:31:39;13.70;60.60
16663;DHT22;8445;51.270;9.434;2022-09-02T05:34:09;13.80;60.70
16663;DHT22;8445;51.270;9.434;2022-09-02T05:36:35;13.80;60.70
16663;DHT22;8445;51.270;9.434;2022-09-02T05:39:01;13.90;61.10
16663;DHT22;8445;51.270;9.434;2022-09-02T05:41:28;14.00;61.30
16663;DHT22;8445;51.270;9.434;2022-09-02T05:44:00;14.00;60.80
16663;DHT22;8445;51.270;9.434;2022-09-02T05:46:30;14.10;61.10
16663;DHT22;8445;51.270;9.434;2022-09-02T05:48:59;14.20;60.90
16663;DHT22;8445;51.270;9.434;2022-09-02T05:51:45;14.30;61.00
16663;DHT22;8445;51.270;9.434;2022-09-02T05:54:27;14.40;60.90
16663;DHT22;8445;51.270;9.434;2022-09-02T05:56:59;14.50;61.00
16663;DHT22;8445;51.270;9.434;2022-09-02T05:59:28;14.60;60.90
16663;DHT22;8445;51.270;9.434;2022-09-02T06:01:57;14.70;60.90
16663;DHT22;8445;51.270;9.434;2022-09-02T06:04:25;14.80;60.80
16663;DHT22;8445;51.270;9.434;2022-09-02T06:06:51;14.90;60.90
16663;DHT22;8445;51.270;9.434;2022-09-02T06:09:20;15.00;60.80
16663;DHT22;8445;51.270;9.434;2022-09-02T06:11:49;15.10;60.80
16663;DHT22;8445;51.270;9.434;2022-09-02T06:14:22;15.20;60.70
16663;DHT22;8445;51.270;9.434;2022-09-02T06:16:55;15.30;60.70
16663;DHT22;8445;51.270;9.434;2022-09-02T06:19:27;15.50;60.70
16663;DHT22;8445;51.270;9.434;2022-09-02T06:21:56;15.60;60.80
16663;DHT22;8445;51.270;9.434;2022-09-02T06:24:25;15.70;60.70
16663;DHT22;8445;51.270;9.434;2022-09-02T06:26:52;15.80;60.70
16663;DHT22;8445;51.270;9.434;2022-09-02T06:29:20;16.00;60.60
16663;DHT22;8445;51.270;9.434;2022-09-02T06:31:48;16.10;60.50
16663;DHT22;8445;51.270;9.434;2022-09-02T06:34:20;16.20;60.60
16663;DHT22;8445;51.270;9.434;2022-09-02T06:36:49;16.40;60.40
16663;DHT22;8445;51.270;9.434;2022-09-02T06:39:19;16.50;60.40
16663;DHT22;8445;51.270;9.434;2022-09-02T06:41:47;16.60;60.20
16663;DHT22;8445;51.270;9.434;2022-09-02T06:44:16;16.80;60.10
16663;DHT22;8445;51.270;9.434;2022-09-02T06:46:46;16.80;60.10
16663;DHT22;8445;51.270;9.434;2022-09-02T06:49:14;17.00;60.20
16663;DHT22;8445;51.270;9.434;2022-09-02T06:51:45;17.10;60.00
16663;DHT22;8445;51.270;9.434;2022-09-02T06:54:15;17.20;59.90
16663;DHT22;8445;51.270;9.434;2022-09-02T06:56:45;17.40;60.00
16663;DHT22;8445;51.270;9.434;2022-09-02T06:59:12;17.50;59.60
16663;DHT22;8445;51.270;9.434;2022-09-02T07:01:44;17.70;59.60
16663;DHT22;8445;51.270;9.434;2022-09-02T07:04:15;17.80;59.40
16663;DHT22;8445;51.270;9.434;2022-09-02T07:07:04;17.90;59.30
16663;DHT22;8445;51.270;9.434;2022-09-02T07:09:35;18.10;59.00
16663;DHT22;8445;51.270;9.434;2022-09-02T07:12:08;18.20;59.10
16663;DHT22;8445;51.270;9.434;2022-09-02T07:14:41;18.30;59.10
16663;DHT22;8445;51.270;9.434;2022-09-02T07:17:12;18.40;59.00
16663;DHT22;8445;51.270;9.434;2022-09-02T07:19:45;18.50;58.90
16663;DHT22;8445;51.270;9.434;2022-09-02T07:22:12;18.70;59.10
16663;DHT22;8445;51.270;9.434;2022-09-02T07:24:43;18.90;59.10
16663;DHT22;8445;51.270;9.434;2022-09-02T07:27:14;19.10;59.10
16663;DHT22;8445;51.270;9.434;2022-09-02T07:29:45;19.30;58.30
16663;DHT22;8445;51.270;9.434;2022-09-02T07:32:17;19.40;58.20
16663;DHT22;8445;51.270;9.434;2022-09-02T07:34:50;19.60;58.10
16663;DHT22;8445;51.270;9.434;2022-09-02T07:37:21;19.70;58.00
16663;DHT22;8445;51.270;9.434;2022-09-02T07:39:52;19.80;57.40
16663;DHT22;8445;51.270;9.434;2022-09-02T07:42:19;20.00;57.70
16663;DHT22;8445;51.270;9.434;2022-09-02T07:44:49;20.10;57.80
16663;DHT22;8445;51.270;9.434;2022-09-02T07:47:20;20.30;57.80
16663;DHT22;8445;51.270;9.434;2022-09-02T07:49:49;20.50;57.70
16663;DHT22;8445;51.270;9.434;2022-09-02T07:52:15;20.60;57.10
16663;DHT22;8445;51.270;9.434;2022-09-02T07:54:44;20.80;57.10
16663;DHT22;8445;51.270;9.434;2022-09-02T07:57:15;21.00;57.10
16663;DHT22;8445;51.270;9.434;2022-09-02T07:59:46;21.20;57.00
16663;DHT22;8445;51.270;9.434;2022-09-02T08:02:19;21.40;56.80
16663;DHT22;8445;51.270;9.434;2022-09-02T08:04:47;21.60;56.60
16663;DHT22;8445;51.270;9.434;2022-09-02T08:07:15;21.90;56.00
16663;DHT22;8445;51.270;9.434;2022-09-02T08:09:44;22.00;55.60
16663;DHT22;8445;51.270;9.434;2022-09-02T08:12:25;22.00;55.40
16663;DHT22;8445;51.270;9.434;2022-09-02T08:14:56;22.00;55.30
16663;DHT22;8445;51.270;9.434;2022-09-02T08:17:23;22.00;54.20
16663;DHT22;8445;51.270;9.434;2022-09-02T08:19:49;22.00;54.10
16663;DHT22;8445;51.270;9.434;2022-09-02T08:22:15;22.10;54.70
16663;DHT22;8445;51.270;9.434;2022-09-02T08:24:41;22.10;53.80
16663;DHT22;8445;51.270;9.434;2022-09-02T08:27:07;22.10;53.60
16663;DHT22;8445;51.270;9.434;2022-09-02T08:29:33;22.10;54.20
16663;DHT22;8445;51.270;9.434;2022-09-02T08:32:00;22.20;53.70
16663;DHT22;8445;51.270;9.434;2022-09-02T08:34:27;22.30;54.30
16663;DHT22;8445;51.270;9.434;2022-09-02T08:36:56;22.60;53.60
16663;DHT22;8445;51.270;9.434;2022-09-02T08:39:22;22.80;53.80
16663;DHT22;8445;51.270;9.434;2022-09-02T08:41:53;23.10;53.60
16663;DHT22;8445;51.270;9.434;2022-09-02T08:44:23;23.30;53.20
16663;DHT22;8445;51.270;9.434;2022-09-02T08:46:53;23.50;52.70
16663;DHT22;8445;51.270;9.434;2022-09-02T08:49:29;23.70;52.70
16663;DHT22;8445;51.270;9.434;2022-09-02T08:52:02;23.80;52.50
16663;DHT22;8445;51.270;9.434;2022-09-02T08:54:45;23.90;51.10
16663;DHT22;8445;51.270;9.434;2022-09-02T08:57:15;23.90;50.30
16663;DHT22;8445;51.270;9.434;2022-09-02T08:59:42;23.70;50.70
16663;DHT22;8445;51.270;9.434;2022-09-02T09:08:30;22.70;46.50
16663;DHT22;8445;51.270;9.434;2022-09-02T09:14:20;22.10;50.70
16663;DHT22;8445;51.270;9.434;2022-09-02T09:17:08;21.80;50.50
16663;DHT22;8445;51.270;9.434;2022-09-02T09:19:54;21.40;50.70
16663;DHT22;8445;51.270;9.434;2022-09-02T09:22:31;21.10;50.90
16663;DHT22;8445;51.270;9.434;2022-09-02T09:25:11;20.80;51.10
16663;DHT22;8445;51.270;9.434;2022-09-02T09:27:40;20.40;51.40
16663;DHT22;8445;51.270;9.434;2022-09-02T09:30:07;20.10;51.80
16663;DHT22;8445;51.270;9.434;2022-09-02T09:32:38;20.00;53.40
16663;DHT22;8445;51.270;9.434;2022-09-02T09:35:15;19.90;52.50
16663;DHT22;8445;51.270;9.434;2022-09-02T09:37:44;19.90;53.40
16663;DHT22;8445;51.270;9.434;2022-09-02T09:45:36;19.80;52.50
16663;DHT22;8445;51.270;9.434;2022-09-02T09:48:21;19.80;52.50
16663;DHT22;8445;51.270;9.434;2022-09-02T09:55:59;19.90;52.60
16663;DHT22;8445;51.270;9.434;2022-09-02T10:01:16;19.80;52.20
16663;DHT22;8445;51.270;9.434;2022-09-02T10:04:12;19.70;52.40
16663;DHT22;8445;51.270;9.434;2022-09-02T10:06:59;19.80;53.40
16663;DHT22;8445;51.270;9.434;2022-09-02T10:09:34;20.30;53.40
16663;DHT22;8445;51.270;9.434;2022-09-02T10:12:07;20.70;52.90
16663;DHT22;8445;51.270;9.434;2022-09-02T10:14:42;21.20;53.00
16663;DHT22;8445;51.270;9.434;2022-09-02T16:00:43;24.90;42.60
16663;DHT22;8445;51.270;9.434;2022-09-02T16:03:09;25.40;43.60
16663;DHT22;8445;51.270;9.434;2022-09-02T16:05:35;25.00;45.40
16663;DHT22;8445;51.270;9.434;2022-09-02T16:08:01;24.60;45.90
16663;DHT22;8445;51.270;9.434;2022-09-02T16:10:28;24.20;45.40
16663;DHT22;8445;51.270;9.434;2022-09-02T16:12:54;23.80;45.60
16663;DHT22;8445;51.270;9.434;2022-09-02T16:15:21;23.40;45.90
16663;DHT22;8445;51.270;9.434;2022-09-02T16:17:47;23.10;46.20
16663;DHT22;8445;51.270;9.434;2022-09-02T16:20:15;22.80;46.60
16663;DHT22;8445;51.270;9.434;2022-09-02T16:22:41;22.60;46.80
16663;DHT22;8445;51.270;9.434;2022-09-02T16:25:07;22.50;47.00
16663;DHT22;8445;51.270;9.434;2022-09-02T16:27:33;22.40;46.90
16663;DHT22;8445;51.270;9.434;2022-09-02T16:30:22;22.30;46.90
16663;DHT22;8445;51.270;9.434;2022-09-02T16:32:48;22.20;46.60
16663;DHT22;8445;51.270;9.434;2022-09-02T16:35:17;22.00;46.60
16663;DHT22;8445;51.270;9.434;2022-09-02T16:37:43;21.90;46.70
16663;DHT22;8445;51.270;9.434;2022-09-02T16:40:11;21.80;46.70
16663;DHT22;8445;51.270;9.434;2022-09-02T16:42:37;21.70;46.60
16663;DHT22;8445;51.270;9.434;2022-09-02T16:45:03;21.60;46.40
16663;DHT22;8445;51.270;9.434;2022-09-02T16:47:30;21.50;46.20
16663;DHT22;8445;51.270;9.434;2022-09-02T16:49:58;21.40;46.10
16663;DHT22;8445;51.270;9.434;2022-09-02T16:52:24;21.20;46.00
16663;DHT22;8445;51.270;9.434;2022-09-02T16:54:50;21.10;46.20
16663;DHT22;8445;51.270;9.434;2022-09-02T16:57:16;21.00;46.20
16663;DHT22;8445;51.270;9.434;2022-09-02T16:59:42;20.90;46.20
16663;DHT22;8445;51.270;9.434;2022-09-02T17:02:07;20.90;46.20
16663;DHT22;8445;51.270;9.434;2022-09-02T17:04:33;20.90;46.20
16663;DHT22;8445;51.270;9.434;2022-09-02T17:06:59;20.80;46.10
16663;DHT22;8445;51.270;9.434;2022-09-02T17:09:25;20.70;46.10
16663;DHT22;8445;51.270;9.434;2022-09-02T17:11:51;20.60;46.00
16663;DHT22;8445;51.270;9.434;2022-09-02T17:14:17;20.50;45.90
16663;DHT22;8445;51.270;9.434;2022-09-02T17:16:49;20.40;45.90
16663;DHT22;8445;51.270;9.434;2022-09-02T17:19:18;20.30;45.90
16663;DHT22;8445;51.270;9.434;2022-09-02T17:21:53;20.20;45.90
16663;DHT22;8445;51.270;9.434;2022-09-02T17:24:24;20.00;45.60
16663;DHT22;8445;51.270;9.434;2022-09-02T17:26:53;19.90;45.70
16663;DHT22;8445;51.270;9.434;2022-09-02T17:29:22;19.80;45.60
16663;DHT22;8445;51.270;9.434;2022-09-02T17:31:50;19.70;46.50
16663;DHT22;8445;51.270;9.434;2022-09-02T17:34:16;19.50;45.50
16663;DHT22;8445;51.270;9.434;2022-09-02T17:36:43;19.40;45.40
16663;DHT22;8445;51.270;9.434;2022-09-02T17:39:14;19.30;45.40
16663;DHT22;8445;51.270;9.434;2022-09-02T17:41:42;19.20;45.50
16663;DHT22;8445;51.270;9.434;2022-09-02T17:44:29;19.00;45.50
16663;DHT22;8445;51.270;9.434;2022-09-02T17:47:15;18.90;45.60
16663;DHT22;8445;51.270;9.434;2022-09-02T17:49:45;18.70;45.70
16663;DHT22;8445;51.270;9.434;2022-09-02T17:52:20;18.60;45.60
16663;DHT22;8445;51.270;9.434;2022-09-02T17:54:49;18.40;45.60
16663;DHT22;8445;51.270;9.434;2022-09-02T18:00:27;18.10;45.80
16663;DHT22;8445;51.270;9.434;2022-09-02T18:06:13;17.80;46.10
16663;DHT22;8445;51.270;9.434;2022-09-02T18:08:47;17.60;46.00
16663;DHT22;8445;51.270;9.434;2022-09-02T18:11:20;17.50;46.00
16663;DHT22;8445;51.270;9.434;2022-09-02T18:20:02;17.20;46.30
16663;DHT22;8445;51.270;9.434;2022-09-02T18:22:43;17.10;46.50
16663;DHT22;8445;51.270;9.434;2022-09-02T18:25:37;16.90;46.30
16663;DHT22;8445;51.270;9.434;2022-09-02T18:28:50;16.80;46.50
16663;DHT22;8445;51.270;9.434;2022-09-02T18:31:54;16.70;46.70
16663;DHT22;8445;51.270;9.434;2022-09-02T18:40:35;16.40;46.80
16663;DHT22;8445;51.270;9.434;2022-09-02T18:45:50;16.40;47.20
16663;DHT22;8445;51.270;9.434;2022-09-02T18:48:21;16.50;47.30
16663;DHT22;8445;51.270;9.434;2022-09-02T18:50:56;16.50;47.40
16663;DHT22;8445;51.270;9.434;2022-09-02T18:53:38;16.50;47.40
16663;DHT22;8445;51.270;9.434;2022-09-02T18:56:09;16.50;47.60
16663;DHT22;8445;51.270;9.434;2022-09-02T18:58:38;16.60;47.70
16663;DHT22;8445;51.270;9.434;2022-09-02T19:03:57;16.70;47.80
16663;DHT22;8445;51.270;9.434;2022-09-02T19:06:25;16.80;47.70
16663;DHT22;8445;51.270;9.434;2022-09-02T19:09:05;16.80;47.60
16663;DHT22;8445;51.270;9.434;2022-09-02T19:11:37;16.80;47.70
16663;DHT22;8445;51.270;9.434;2022-09-02T19:16:36;16.90;48.00
16663;DHT22;8445;51.270;9.434;2022-09-02T19:19:03;17.00;47.90
16663;DHT22;8445;51.270;9.434;2022-09-02T19:21:38;17.10;47.90
16663;DHT22;8445;51.270;9.434;2022-09-02T19:24:17;17.10;48.10
16663;DHT22;8445;51.270;9.434;2022-09-02T19:26:49;17.10;47.90
16663;DHT22;8445;51.270;9.434;2022-09-02T19:29:18;17.20;48.00
16663;DHT22;8445;51.270;9.434;2022-09-02T19:31:46;17.20;47.90
16663;DHT22;8445;51.270;9.434;2022-09-02T19:34:14;17.30;48.10
16663;DHT22;8445;51.270;9.434;2022-09-02T19:36:43;17.30;47.90
16663;DHT22;8445;51.270;9.434;2022-09-02T19:39:11;17.40;48.10
16663;DHT22;8445;51.270;9.434;2022-09-02T19:41:40;17.30;48.10
16663;DHT22;8445;51.270;9.434;2022-09-02T19:44:06;17.40;48.00
16663;DHT22;8445;51.270;9.434;2022-09-02T19:46:34;17.40;48.00
16663;DHT22;8445;51.270;9.434;2022-09-02T19:49:09;17.40;48.00
16663;DHT22;8445;51.270;9.434;2022-09-02T19:51:42;17.40;48.10
16663;DHT22;8445;51.270;9.434;2022-09-02T19:54:13;17.40;48.10
16663;DHT22;8445;51.270;9.434;2022-09-02T19:56:43;17.40;48.10
16663;DHT22;8445;51.270;9.434;2022-09-02T19:59:09;17.40;48.00
16663;DHT22;8445;51.270;9.434;2022-09-02T20:01:36;17.40;48.00
16663;DHT22;8445;51.270;9.434;2022-09-02T20:04:03;17.30;48.10
16663;DHT22;8445;51.270;9.434;2022-09-02T20:06:31;17.40;48.10
16663;DHT22;8445;51.270;9.434;2022-09-02T20:08:57;17.40;48.10
16663;DHT22;8445;51.270;9.434;2022-09-02T20:11:23;17.40;48.10
16663;DHT22;8445;51.270;9.434;2022-09-02T20:13:48;17.40;48.10
16663;DHT22;8445;51.270;9.434;2022-09-02T20:16:18;17.40;48.20
16663;DHT22;8445;51.270;9.434;2022-09-02T20:18:47;17.40;48.10
16663;DHT22;8445;51.270;9.434;2022-09-02T20:21:25;17.30;48.10
16663;DHT22;8445;51.270;9.434;2022-09-02T20:23:56;17.30;48.10
16663;DHT22;8445;51.270;9.434;2022-09-02T20:41:33;16.90;48.20
16663;DHT22;8445;51.270;9.434;2022-09-02T20:50:12;16.50;47.70
16663;DHT22;8445;51.270;9.434;2022-09-02T20:53:32;16.30;47.90
16663;DHT22;8445;51.270;9.434;2022-09-02T20:56:18;16.20;48.30
16663;DHT22;8445;51.270;9.434;2022-09-02T21:01:54;16.10;48.30
16663;DHT22;8445;51.270;9.434;2022-09-02T21:07:11;16.10;48.00
16663;DHT22;8445;51.270;9.434;2022-09-02T21:09:50;16.10;48.10
16663;DHT22;8445;51.270;9.434;2022-09-02T21:15:27;15.90;48.00
16663;DHT22;8445;51.270;9.434;2022-09-02T21:21:22;15.90;48.30
16663;DHT22;8445;51.270;9.434;2022-09-02T21:24:07;15.80;48.00
16663;DHT22;8445;51.270;9.434;2022-09-02T21:26:49;15.70;48.70
16663;DHT22;8445;51.270;9.434;2022-09-02T21:35:00;15.60;49.50
16663;DHT22;8445;51.270;9.434;2022-09-02T21:37:31;15.70;49.20
16663;DHT22;8445;51.270;9.434;2022-09-02T21:40:07;15.70;49.10
16663;DHT22;8445;51.270;9.434;2022-09-02T21:48:39;15.70;49.50
16663;DHT22;8445;51.270;9.434;2022-09-02T21:51:44;15.70;48.90
16663;DHT22;8445;51.270;9.434;2022-09-02T21:57:49;15.60;50.00
16663;DHT22;8445;51.270;9.434;2022-09-02T22:00:34;15.60;49.50
16663;DHT22;8445;51.270;9.434;2022-09-02T22:03:15;15.60;49.20
16663;DHT22;8445;51.270;9.434;2022-09-02T22:06:00;15.50;50.20
16663;DHT22;8445;51.270;9.434;2022-09-02T22:08:42;15.50;49.40
16663;DHT22;8445;51.270;9.434;2022-09-02T22:11:33;15.60;49.50
16663;DHT22;8445;51.270;9.434;2022-09-02T22:14:21;15.60;49.30
16663;DHT22;8445;51.270;9.434;2022-09-02T22:19:56;15.50;49.10
16663;DHT22;8445;51.270;9.434;2022-09-02T22:22:35;15.40;49.10
16663;DHT22;8445;51.270;9.434;2022-09-02T22:25:06;15.30;49.20
16663;DHT22;8445;51.270;9.434;2022-09-02T22:28:09;15.20;49.40
16663;DHT22;8445;51.270;9.434;2022-09-02T22:30:57;15.00;49.30
16663;DHT22;8445;51.270;9.434;2022-09-02T22:33:52;15.00;49.50
16663;DHT22;8445;51.270;9.434;2022-09-02T22:39:48;14.90;49.70
16663;DHT22;8445;51.270;9.434;2022-09-02T22:42:31;14.70;49.60
16663;DHT22;8445;51.270;9.434;2022-09-02T22:48:15;14.70;50.00
16663;DHT22;8445;51.270;9.434;2022-09-02T22:51:51;14.80;50.20
16663;DHT22;8445;51.270;9.434;2022-09-02T22:54:45;14.60;50.10
16663;DHT22;8445;51.270;9.434;2022-09-02T23:00:24;14.50;49.90
16663;DHT22;8445;51.270;9.434;2022-09-02T23:06:38;14.40;50.40
16663;DHT22;8445;51.270;9.434;2022-09-02T23:09:08;14.50;50.40
16663;DHT22;8445;51.270;9.434;2022-09-02T23:15:22;14.50;50.30
16663;DHT22;8445;51.270;9.434;2022-09-02T23:27:06;14.30;50.50
16663;DHT22;8445;51.270;9.434;2022-09-02T23:29:35;14.10;51.10
16663;DHT22;8445;51.270;9.434;2022-09-02T23:38:23;13.70;51.00
16663;DHT22;8445;51.270;9.434;2022-09-02T23:41:10;13.60;51.60
16663;DHT22;8445;51.270;9.434;2022-09-02T23:43:38;13.40;51.40
16663;DHT22;8445;51.270;9.434;2022-09-02T23:46:22;13.30;51.60
16663;DHT22;8445;51.270;9.434;2022-09-02T23:51:54;13.20;52.10
16663;DHT22;8445;51.270;9.434;2022-09-02T23:57:19;13.10;52.50
